Time;durP1;ratioP1;P1;durP2;ratioP2;P2;SDS_P1;SDS_P2;PMS_P1;PMS_P2;Temp;Humidity;BMP_temperature;BMP_pressure;BME280_temperature;BME280_humidity;BME280_pressure;Samples;Min_cycle;Max_cycle;Signal;HPM_P1;HPM_P2
2024/02/12 00:00:35;;;;;;;22.20;10.27;;;;;;;5.12;100.00;99819.09;6087790;19;20476;-73
2024/02/12 00:02:44;;;;;;;22.33;9.88;;;;;;;5.12;100.00;99826.91;6086159;19;20014;-73
2024/02/12 00:04:50;;;;;;;19.63;9.05;;;;;;;5.13;100.00;99823.38;6076002;19;20515;-73
2024/02/12 00:06:58;;;;;;;25.00;11.15;;;;;;;5.13;100.00;99831.19;6087346;19;20035;-73
2024/02/12 00:09:03;;;;;;;23.90;10.65;;;;;;;5.16;100.00;99832.84;6084970;19;20066;-73
2024/02/12 00:11:10;;;;;;;18.25;8.20;;;;;;;5.16;100.00;99844.16;6084758;19;20024;-73
2024/02/12 00:13:17;;;;;;;18.52;8.90;;;;;;;5.16;100.00;99845.88;6084990;19;20052;-74
2024/02/12 00:15:23;;;;;;;21.90;11.00;;;;;;;5.20;100.00;99845.72;6087544;19;20553;-73
2024/02/12 00:17:34;;;;;;;21.83;11.00;;;;;;;5.23;100.00;99855.19;6087481;19;20014;-73
2024/02/12 00:19:40;;;;;;;22.42;10.25;;;;;;;5.26;100.00;99855.06;6081911;19;20027;-73
2024/02/12 00:21:45;;;;;;;19.25;10.00;;;;;;;5.26;100.00;99855.91;6087239;19;20085;-74
2024/02/12 00:23:51;;;;;;;28.13;11.60;;;;;;;5.34;100.00;99866.06;6087993;19;20506;-75
2024/02/12 00:25:56;;;;;;;20.30;10.95;;;;;;;5.33;100.00;99858.34;6087647;19;20417;-76
2024/02/12 00:28:01;;;;;;;24.73;10.60;;;;;;;5.40;100.00;99865.88;6088324;19;20015;-76
2024/02/12 00:30:08;;;;;;;30.08;10.02;;;;;;;5.42;100.00;99858.00;6088586;19;20249;-76
2024/02/12 00:32:13;;;;;;;23.05;10.95;;;;;;;5.45;100.00;99855.28;6090672;19;20457;-77
2024/02/12 00:34:23;;;;;;;25.95;11.55;;;;;;;5.45;100.00;99860.50;6091123;19;20285;-76
2024/02/12 00:36:30;;;;;;;37.47;11.93;;;;;;;5.46;100.00;99859.59;6087326;19;20006;-77
2024/02/12 00:38:35;;;;;;;32.42;13.27;;;;;;;5.45;100.00;99856.16;6088960;19;20007;-76
2024/02/12 00:40:40;;;;;;;27.10;12.18;;;;;;;5.48;100.00;99863.84;6089909;19;20018;-75
2024/02/12 00:42:45;;;;;;;24.75;11.23;;;;;;;5.53;100.00;99861.09;6087776;19;20006;-75
2024/02/12 00:44:51;;;;;;;33.80;14.00;;;;;;;5.57;100.00;99872.25;6088706;19;20025;-76
2024/02/12 00:46:54;;;;;;;29.33;14.27;;;;;;;5.60;100.00;99867.78;6077479;19;19999;-75
2024/02/12 00:49:00;;;;;;;28.08;12.50;;;;;;;5.62;100.00;99875.53;6084980;19;20010;-75
2024/02/12 00:51:10;;;;;;;28.15;12.88;;;;;;;5.59;100.00;99870.44;6083040;19;20010;-76
2024/02/12 00:53:15;;;;;;;25.48;11.85;;;;;;;5.61;100.00;99877.31;6082124;19;20431;-75
2024/02/12 00:55:21;;;;;;;32.25;13.38;;;;;;;5.62;100.00;99881.59;6087132;19;20918;-75
2024/02/12 00:57:27;;;;;;;33.33;12.43;;;;;;;5.62;100.00;99884.22;6082339;19;20007;-75
2024/02/12 00:59:34;;;;;;;27.83;13.52;;;;;;;5.70;100.00;99887.38;6081957;19;20486;-77
2024/02/12 01:01:40;;;;;;;29.00;12.32;;;;;;;5.75;100.00;99891.59;6083540;19;20566;-75
2024/02/12 01:03:45;;;;;;;30.15;13.02;;;;;;;5.73;100.00;99892.50;6085680;19;20014;-75
2024/02/12 01:05:50;;;;;;;26.92;13.85;;;;;;;5.76;100.00;99898.50;6085101;19;20375;-75
2024/02/12 01:08:01;;;;;;;30.92;12.95;;;;;;;5.77;100.00;99895.00;6082548;19;20015;-77
2024/02/12 01:10:04;;;;;;;26.00;11.60;;;;;;;5.77;100.00;99902.84;6083610;19;20066;-75
2024/02/12 01:12:09;;;;;;;26.27;12.13;;;;;;;5.78;100.00;99892.34;6085733;19;20010;-74
2024/02/12 01:14:14;;;;;;;36.65;13.93;;;;;;;5.75;100.00;99897.66;6084510;19;20006;-75
2024/02/12 01:16:21;;;;;;;25.55;12.80;;;;;;;5.78;100.00;99894.09;6084494;19;20011;-75
2024/02/12 01:18:26;;;;;;;23.45;12.02;;;;;;;5.77;100.00;99889.81;6084288;19;20007;-75
2024/02/12 01:20:32;;;;;;;26.67;13.50;;;;;;;5.74;100.00;99888.16;6084541;19;20006;-75
2024/02/12 01:22:38;;;;;;;26.85;12.68;;;;;;;5.71;100.00;99885.63;6084193;19;20023;-76
2024/02/12 01:24:46;;;;;;;34.85;13.00;;;;;;;5.69;100.00;99893.53;6084373;19;20033;-76
2024/02/12 01:26:51;;;;;;;40.55;13.82;;;;;;;5.68;100.00;99890.97;6084450;19;20230;-76
2024/02/12 01:28:57;;;;;;;33.50;13.38;;;;;;;5.67;100.00;99900.53;6084071;19;20429;-76
2024/02/12 01:31:03;;;;;;;31.42;11.07;;;;;;;5.70;100.00;99896.97;6083888;19;20010;-75
2024/02/12 01:33:09;;;;;;;29.98;12.88;;;;;;;5.71;100.00;99907.34;6084842;19;20022;-76
2024/02/12 01:35:15;;;;;;;27.80;12.55;;;;;;;5.74;100.00;99903.78;6082722;19;20822;-76
2024/02/12 01:37:22;;;;;;;34.45;13.65;;;;;;;5.77;100.00;99902.84;6084763;19;20106;-76
2024/02/12 01:39:27;;;;;;;28.50;12.52;;;;;;;5.78;100.00;99899.31;6082099;19;20468;-75
2024/02/12 01:41:36;;;;;;;31.95;14.65;;;;;;;5.77;100.00;99902.84;6081611;19;20063;-75
2024/02/12 01:43:42;;;;;;;34.15;13.95;;;;;;;5.78;100.00;99909.75;6080518;19;20726;-75
2024/02/12 01:45:47;;;;;;;30.15;13.27;;;;;;;5.75;100.00;99909.84;6083516;19;20022;-74
2024/02/12 01:47:58;;;;;;;30.95;11.70;;;;;;;5.75;100.00;99910.69;6085052;19;20021;-76
2024/02/12 01:50:04;;;;;;;29.85;12.73;;;;;;;5.76;100.00;99906.31;6081700;19;20033;-75
2024/02/12 01:52:10;;;;;;;32.05;12.50;;;;;;;5.69;100.00;99905.72;6079787;19;20551;-75
2024/02/12 01:54:17;;;;;;;28.17;12.75;;;;;;;5.66;100.00;99906.66;6081770;19;20382;-75
2024/02/12 01:56:24;;;;;;;34.17;13.80;;;;;;;5.64;100.00;99903.25;6082522;19;20017;-75
2024/02/12 01:58:33;;;;;;;28.92;11.98;;;;;;;5.62;100.00;99902.44;6082349;19;20007;-75
2024/02/12 02:00:42;;;;;;;28.17;11.43;;;;;;;5.53;100.00;99897.56;6081463;19;20018;-75
2024/02/12 02:02:49;;;;;;;40.28;15.48;;;;;;;5.50;100.00;99902.88;6080245;19;20006;-73
2024/02/12 02:04:55;;;;;;;34.83;13.02;;;;;;;5.42;100.00;99910.94;6079494;19;20010;-73
2024/02/12 02:07:02;;;;;;;32.00;12.60;;;;;;;5.33;100.00;99908.66;6079772;19;20027;-73
2024/02/12 02:09:11;;;;;;;31.02;11.80;;;;;;;5.26;100.00;99922.78;6083900;19;20014;-73
2024/02/12 02:11:15;;;;;;;36.17;14.65;;;;;;;5.25;100.00;99919.34;6080005;19;20013;-73
2024/02/12 02:13:21;;;;;;;27.67;12.30;;;;;;;5.24;100.00;99928.06;6081958;19;20038;-73
2024/02/12 02:15:30;;;;;;;35.35;12.98;;;;;;;5.25;100.00;99932.38;6083079;19;20049;-73
2024/02/12 02:17:35;;;;;;;31.20;13.23;;;;;;;5.29;100.00;99933.09;6080578;19;20532;-75
2024/02/12 02:19:38;;;;;;;28.92;12.88;;;;;;;5.34;100.00;99931.19;6082845;19;20015;-75
2024/02/12 02:21:43;;;;;;;39.78;13.88;;;;;;;5.40;100.00;99935.38;6078687;19;20011;-75
2024/02/12 02:23:49;;;;;;;30.63;13.95;;;;;;;5.42;100.00;99939.59;6082800;19;20668;-75
2024/02/12 02:25:56;;;;;;;29.20;12.05;;;;;;;5.50;100.00;99947.16;6082951;19;20023;-75
2024/02/12 02:28:03;;;;;;;33.33;12.80;;;;;;;5.50;100.00;99941.97;6082812;19;20083;-75
2024/02/12 02:30:10;;;;;;;33.63;13.25;;;;;;;5.53;100.00;99952.31;6080731;19;20014;-75
2024/02/12 02:32:16;;;;;;;29.73;13.45;;;;;;;5.55;100.00;99947.88;6084837;19;20006;-75
2024/02/12 02:34:21;;;;;;;33.22;13.45;;;;;;;5.58;100.00;99950.41;6083981;19;20073;-75
2024/02/12 02:36:27;;;;;;;32.00;14.07;;;;;;;5.58;100.00;99950.41;6083043;19;20003;-75
2024/02/12 02:38:34;;;;;;;29.42;12.60;;;;;;;5.60;100.00;99950.31;6081801;19;20003;-75
2024/02/12 02:40:42;;;;;;;32.50;13.82;;;;;;;5.58;100.00;99953.00;6082263;19;20407;-75
2024/02/12 02:42:50;;;;;;;32.55;13.23;;;;;;;5.61;100.00;99952.88;6081403;19;20440;-75
2024/02/12 02:44:53;;;;;;;35.85;14.00;;;;;;;5.62;100.00;99962.41;6082823;19;20027;-74
2024/02/12 02:46:58;;;;;;;35.78;13.93;;;;;;;5.64;100.00;99960.59;6082889;19;20766;-78
2024/02/12 02:49:05;;;;;;;32.22;13.93;;;;;;;5.66;100.00;99957.91;6088701;19;20500;-76
2024/02/12 02:51:10;;;;;;;31.20;12.60;;;;;;;5.70;100.00;99960.38;6089134;19;20098;-77
2024/02/12 02:53:16;;;;;;;34.00;13.10;;;;;;;5.69;100.00;99955.22;6086022;19;20011;-75
2024/02/12 02:55:23;;;;;;;30.90;11.80;;;;;;;5.68;100.00;99958.72;6090960;19;20011;-76
2024/02/12 02:57:32;;;;;;;35.47;14.20;;;;;;;5.66;100.00;99961.41;6090049;19;20268;-75
2024/02/12 02:59:40;;;;;;;34.38;13.27;;;;;;;5.65;100.00;99961.44;6089698;19;20015;-75
2024/02/12 03:01:45;;;;;;;34.17;13.82;;;;;;;5.63;100.00;99960.63;6088331;19;20034;-75
2024/02/12 03:03:51;;;;;;;31.90;12.25;;;;;;;5.69;100.00;99957.84;6091376;19;20089;-75
2024/02/12 03:05:56;;;;;;;27.17;12.02;;;;;;;5.66;100.00;99958.78;6091860;19;20043;-76
2024/02/12 03:08:06;;;;;;;27.88;13.10;;;;;;;5.67;100.00;99964.84;6089607;19;20015;-75
2024/02/12 03:10:13;;;;;;;34.08;13.55;;;;;;;5.70;100.00;99960.38;6090109;19;20996;-76
2024/02/12 03:12:19;;;;;;;33.42;12.27;;;;;;;5.71;100.00;99963.81;6089127;19;20283;-76
2024/02/12 03:14:24;;;;;;;33.80;12.10;;;;;;;5.73;100.00;99962.88;6091203;19;20032;-76
2024/02/12 03:16:33;;;;;;;35.08;13.15;;;;;;;5.73;100.00;99960.25;6091596;19;20006;-76
2024/02/12 03:18:38;;;;;;;28.25;11.82;;;;;;;5.76;100.00;99961.06;6090033;19;20582;-75
2024/02/12 03:20:45;;;;;;;32.20;13.50;;;;;;;5.78;100.00;99957.50;6089978;19;20039;-77
2024/02/12 03:22:50;;;;;;;28.80;13.15;;;;;;;5.78;100.00;99951.44;6091030;19;20017;-77
2024/02/12 03:24:56;;;;;;;32.55;13.40;;;;;;;5.76;100.00;99958.47;6088832;19;20475;-79
2024/02/12 03:27:01;;;;;;;30.00;12.75;;;;;;;5.67;100.00;99959.66;6085229;19;20475;-76
2024/02/12 03:29:06;;;;;;;31.48;13.30;;;;;;;5.61;100.00;99957.22;6087637;19;20006;-76
2024/02/12 03:31:12;;;;;;;28.45;11.95;;;;;;;5.55;100.00;99957.44;6088661;19;20257;-75
2024/02/12 03:33:20;;;;;;;32.25;12.65;;;;;;;5.54;100.00;99959.19;6080090;19;20015;-74
2024/02/12 03:35:22;;;;;;;29.90;12.77;;;;;;;5.53;100.00;99962.72;6085832;19;20632;-76
2024/02/12 03:37:31;;;;;;;32.90;12.77;;;;;;;5.50;100.00;99963.69;6084147;19;20052;-75
2024/02/12 03:39:36;;;;;;;25.67;11.77;;;;;;;5.53;100.00;99973.16;6087736;19;20127;-76
2024/02/12 03:41:44;;;;;;;31.63;12.13;;;;;;;5.55;100.00;99979.13;6087769;19;20057;-75
2024/02/12 03:43:49;;;;;;;29.00;12.45;;;;;;;5.57;100.00;99984.31;6085033;19;20015;-75
2024/02/12 03:45:56;;;;;;;35.45;13.93;;;;;;;5.58;100.00;99976.47;6086684;19;20006;-76
2024/02/12 03:48:01;;;;;;;30.20;12.50;;;;;;;5.59;100.00;99980.75;6085888;19;20089;-76
2024/02/12 03:59:56;;;;;;;31.92;13.18;;;;;;;5.64;100.00;99997.09;6083460;19;20043;-77
2024/02/12 04:02:01;;;;;;;28.85;11.25;;;;;;;5.65;100.00;99993.56;6082021;19;20010;-76
2024/02/12 04:04:07;;;;;;;31.65;12.70;;;;;;;5.66;100.00;99997.91;6083586;19;20294;-76
2024/02/12 04:06:15;;;;;;;32.92;13.43;;;;;;;5.73;100.00;99998.53;6084927;19;20007;-78
2024/02/12 04:08:20;;;;;;;36.95;15.32;;;;;;;5.74;100.00;100005.47;6084556;19;20006;-76
2024/02/12 04:10:25;;;;;;;37.47;15.07;;;;;;;5.79;100.00;100002.66;6087427;19;20002;-76
2024/02/12 04:12:32;;;;;;;41.70;14.23;;;;;;;5.79;100.00;100000.06;6088164;19;20003;-76
2024/02/12 04:14:42;;;;;;;28.50;13.25;;;;;;;5.82;100.00;100010.38;6085855;19;20010;-76
2024/02/12 04:16:51;;;;;;;32.72;12.38;;;;;;;5.84;100.00;100011.19;6088308;19;20010;-76
2024/02/12 04:18:56;;;;;;;30.13;13.43;;;;;;;5.89;100.00;100011.88;6083598;19;20007;-77
2024/02/12 04:20:59;;;;;;;29.10;12.35;;;;;;;5.92;100.00;100012.66;6087595;19;20006;-77
2024/02/12 04:23:11;;;;;;;32.70;13.02;;;;;;;5.94;100.00;100010.00;6082751;19;20010;-76
2024/02/12 04:25:19;;;;;;;28.67;12.85;;;;;;;5.98;100.00;100011.63;6084372;19;20006;-77
2024/02/12 04:27:24;;;;;;;30.30;13.43;;;;;;;6.01;100.00;100021.94;6087324;19;20007;-77
2024/02/12 04:29:28;;;;;;;31.70;12.60;;;;;;;6.03;100.00;100022.75;6079672;19;20490;-76
2024/02/12 04:31:35;;;;;;;23.23;11.68;;;;;;;6.08;100.00;100023.44;6083907;19;20035;-76
2024/02/12 04:33:40;;;;;;;23.40;10.70;;;;;;;6.12;100.00;100018.94;6086397;19;20105;-76
2024/02/12 04:35:46;;;;;;;35.13;12.85;;;;;;;6.12;100.00;100031.97;6084107;19;20514;-77
2024/02/12 04:37:51;;;;;;;21.75;9.93;;;;;;;6.18;100.00;100031.75;6085007;19;20017;-77
2024/02/12 04:40:03;;;;;;;29.63;10.43;;;;;;;6.15;100.00;100031.88;6083634;19;20512;-77
2024/02/12 04:42:09;;;;;;;26.80;9.20;;;;;;;6.18;100.00;100036.13;6081300;19;20321;-76
2024/02/12 04:44:12;;;;;;;25.77;9.55;;;;;;;6.24;100.00;100035.91;6086624;19;20027;-76
2024/02/12 04:46:17;;;;;;;30.85;9.68;;;;;;;6.21;100.00;100038.63;6083869;19;20003;-76
2024/02/12 04:48:24;;;;;;;24.70;11.00;;;;;;;6.21;100.00;100038.63;6085645;19;20006;-77
2024/02/12 04:50:29;;;;;;;28.50;10.60;;;;;;;6.20;100.00;100047.38;6084935;19;20006;-77
2024/02/12 04:52:34;;;;;;;23.58;10.65;;;;;;;6.15;100.00;100043.16;6083530;19;20011;-77
2024/02/12 04:54:39;;;;;;;36.25;10.52;;;;;;;6.15;100.00;100040.53;6081196;19;20010;-77
2024/02/12 04:56:44;;;;;;;22.27;9.60;;;;;;;6.21;100.00;100049.06;6085866;19;20043;-77
2024/02/12 04:58:49;;;;;;;21.52;9.48;;;;;;;6.19;100.00;100046.53;6084664;19;20011;-77
2024/02/12 05:00:55;;;;;;;25.17;9.82;;;;;;;6.23;100.00;100052.47;6087227;19;20010;-78
2024/02/12 05:03:00;;;;;;;22.95;9.27;;;;;;;6.19;100.00;100051.75;6083490;19;20006;-76
2024/02/12 05:05:06;;;;;;;18.98;7.70;;;;;;;6.20;100.00;100052.59;6085542;19;20055;-75
2024/02/12 05:07:11;;;;;;;20.13;8.75;;;;;;;6.12;100.00;100058.91;6084454;19;20307;-75
2024/02/12 05:09:17;;;;;;;20.55;8.75;;;;;;;6.14;100.00;100046.69;6085111;19;20018;-74
2024/02/12 05:11:25;;;;;;;15.35;7.40;;;;;;;6.08;100.00;100057.34;6082902;19;20015;-75
2024/02/12 05:13:33;;;;;;;20.10;8.80;;;;;;;6.11;100.00;100062.44;6085096;19;20011;-74
2024/02/12 05:15:39;;;;;;;19.30;8.90;;;;;;;6.08;100.00;100064.28;6084440;19;20035;-74
2024/02/12 05:17:55;;;;;;;25.27;8.65;;;;;;;6.11;100.00;100064.22;6082230;19;20018;-74
2024/02/12 05:24:36;;;;;;;17.90;7.90;;;;;;;6.05;100.00;100074.81;6082764;19;20088;-73
2024/02/12 05:26:41;;;;;;;14.32;7.25;;;;;;;6.07;100.00;100071.25;6084805;19;20002;-74
2024/02/12 05:28:48;;;;;;;17.13;7.93;;;;;;;6.08;100.00;100075.59;6082919;19;20015;-74
2024/02/12 05:30:53;;;;;;;19.77;7.15;;;;;;;6.04;100.00;100075.75;6086017;19;20538;-74
2024/02/12 05:32:59;;;;;;;16.38;7.43;;;;;;;6.03;100.00;100074.03;6083531;19;20010;-74
2024/02/12 05:35:04;;;;;;;13.68;7.78;;;;;;;5.98;100.00;100079.41;6082427;19;20344;-74
2024/02/12 05:37:07;;;;;;;20.25;8.27;;;;;;;6.00;100.00;100082.81;6083474;19;20638;-74
2024/02/12 05:39:12;;;;;;;16.77;7.13;;;;;;;5.99;100.00;100086.31;6083895;19;20552;-73
2024/02/12 05:41:18;;;;;;;20.83;9.77;;;;;;;6.02;100.00;100080.16;6085060;19;20060;-73
2024/02/12 05:43:23;;;;;;;15.40;8.32;;;;;;;6.01;100.00;100079.31;6084058;19;20011;-73
2024/02/12 05:45:31;;;;;;;17.27;7.72;;;;;;;6.03;100.00;100084.44;6085014;19;19999;-72
2024/02/12 05:47:36;;;;;;;20.63;8.18;;;;;;;5.99;100.00;100080.25;6083356;19;20011;-72
2024/02/12 05:49:42;;;;;;;18.25;7.07;;;;;;;5.97;100.00;100080.31;6084661;19;20010;-75
2024/02/12 05:51:48;;;;;;;15.48;7.22;;;;;;;5.96;100.00;100081.22;6084916;19;20472;-72
2024/02/12 05:53:53;;;;;;;18.23;6.85;;;;;;;5.91;100.00;100083.94;6081869;19;20021;-75
2024/02/12 05:55:59;;;;;;;16.80;7.70;;;;;;;5.87;100.00;100086.69;6080680;19;20020;-74
2024/02/12 05:58:05;;;;;;;19.77;7.65;;;;;;;5.89;100.00;100082.28;6084468;19;20007;-75
2024/02/12 06:00:11;;;;;;;17.48;6.68;;;;;;;5.80;100.00;100085.22;6081364;19;20094;-75
2024/02/12 06:02:18;;;;;;;17.27;8.13;;;;;;;5.77;100.00;100091.38;6082751;19;20018;-75
2024/02/12 06:04:24;;;;;;;16.83;7.60;;;;;;;5.70;100.00;100087.25;6082643;19;20036;-75
2024/02/12 06:06:30;;;;;;;16.23;7.32;;;;;;;5.63;100.00;100091.81;6083666;19;20016;-76
2024/02/12 06:08:33;;;;;;;15.40;7.68;;;;;;;5.56;100.00;100105.94;6083714;19;20006;-73
2024/02/12 06:10:38;;;;;;;13.02;6.18;;;;;;;5.52;100.00;100093.91;6083171;19;20413;-76
2024/02/12 06:12:43;;;;;;;17.75;6.90;;;;;;;5.45;100.00;100100.19;6082734;19;20007;-73
2024/02/12 06:14:48;;;;;;;14.50;6.57;;;;;;;5.43;100.00;100102.03;6081785;19;20018;-73
2024/02/12 06:16:54;;;;;;;12.20;5.15;;;;;;;5.38;100.00;100104.78;6083102;19;20334;-74
2024/02/12 06:19:03;;;;;;;11.93;5.97;;;;;;;5.35;100.00;100110.09;6081205;19;20355;-74
2024/02/12 06:21:08;;;;;;;15.15;5.78;;;;;;;5.25;100.00;100109.50;6083843;19;20014;-75
2024/02/12 06:23:14;;;;;;;13.32;5.70;;;;;;;5.23;100.00;100113.91;6089993;19;20018;-76
2024/02/12 06:25:21;;;;;;;16.25;6.07;;;;;;;5.21;100.00;100113.13;6088756;19;20337;-72
2024/02/12 06:27:26;;;;;;;13.80;5.32;;;;;;;5.13;100.00;100119.44;6088508;19;20527;-75
2024/02/12 06:29:31;;;;;;;16.90;6.53;;;;;;;5.11;100.00;100116.88;6088747;19;20256;-73
2024/02/12 06:31:45;;;;;;;11.65;5.82;;;;;;;5.08;100.00;100116.94;6089019;19;20348;-74
2024/02/12 06:33:50;;;;;;;13.80;6.88;;;;;;;5.05;100.00;100127.47;6091692;19;20377;-76
2024/02/12 06:36:01;;;;;;;15.07;5.65;;;;;;;5.04;100.00;100126.63;6088910;19;20353;-73
2024/02/12 06:38:09;;;;;;;14.73;6.05;;;;;;;5.00;100.00;100129.34;6086996;19;20010;-73
2024/02/12 06:40:15;;;;;;;16.23;6.55;;;;;;;4.95;100.00;100126.03;6089567;19;20487;-75
2024/02/12 06:42:20;;;;;;;16.08;6.13;;;;;;;4.91;100.00;100135.69;6087496;19;20027;-73
2024/02/12 06:44:25;;;;;;;17.50;6.32;;;;;;;4.88;100.00;100134.91;6084086;19;20002;-73
2024/02/12 06:46:31;;;;;;;12.35;5.70;;;;;;;4.83;100.00;100143.69;6086388;19;19998;-73
2024/02/12 06:48:33;;;;;;;12.52;5.75;;;;;;;4.80;100.00;100146.41;6088534;19;20019;-73
2024/02/12 06:50:38;;;;;;;16.38;6.03;;;;;;;4.79;100.00;100152.50;6088893;19;20743;-75
2024/02/12 06:52:43;;;;;;;13.75;6.40;;;;;;;4.79;100.00;100149.03;6084202;19;20470;-74
2024/02/12 06:54:48;;;;;;;11.75;5.68;;;;;;;4.78;100.00;100156.00;6085273;19;20094;-74
2024/02/12 06:56:54;;;;;;;12.32;5.93;;;;;;;4.76;100.00;100152.56;6086116;19;20015;-74
2024/02/12 06:58:59;;;;;;;13.23;5.65;;;;;;;4.76;100.00;100162.13;6087560;19;20035;-73
2024/02/12 07:01:04;;;;;;;13.95;5.75;;;;;;;4.72;100.00;100161.38;6084885;19;20010;-74
2024/02/12 07:03:10;;;;;;;13.00;6.40;;;;;;;4.69;100.00;100164.06;6087641;19;20370;-74
2024/02/12 07:05:17;;;;;;;11.63;5.72;;;;;;;4.70;100.00;100165.75;6085436;19;20014;-74
2024/02/12 07:07:23;;;;;;;15.30;6.30;;;;;;;4.70;100.00;100167.53;6086293;19;20006;-74
2024/02/12 07:09:31;;;;;;;13.70;6.00;;;;;;;4.69;100.00;100176.22;6084258;19;20025;-74
2024/02/12 07:11:37;;;;;;;19.35;7.22;;;;;;;4.64;100.00;100173.75;6087291;19;20007;-74
2024/02/12 07:13:42;;;;;;;15.40;6.65;;;;;;;4.61;100.00;100173.84;6087673;19;20125;-73
2024/02/12 07:15:47;;;;;;;14.45;5.97;;;;;;;4.61;100.00;100179.03;6087087;19;20023;-73
2024/02/12 07:17:53;;;;;;;15.68;6.53;;;;;;;4.59;100.00;100186.03;6087897;19;20011;-73
2024/02/12 07:19:56;;;;;;;17.02;6.65;;;;;;;4.60;100.00;100188.56;6088326;19;20007;-74
2024/02/12 07:22:02;;;;;;;13.45;5.22;;;;;;;4.60;100.00;100193.78;6087759;19;20086;-73
2024/02/12 07:24:09;;;;;;;18.90;6.78;;;;;;;4.59;100.00;100194.69;6087590;19;20078;-73
2024/02/12 07:26:14;;;;;;;13.15;5.53;;;;;;;4.62;100.00;100193.75;6084778;19;20161;-73
2024/02/12 07:28:22;;;;;;;16.33;6.40;;;;;;;4.65;100.00;100201.47;6086595;19;20018;-74
2024/02/12 07:30:26;;;;;;;16.27;6.45;;;;;;;4.64;100.00;100201.53;6088227;19;20384;-74
2024/02/12 07:32:32;;;;;;;14.68;6.25;;;;;;;4.61;100.00;100212.88;6088307;19;20051;-74
2024/02/12 07:34:38;;;;;;;15.43;6.63;;;;;;;4.60;100.00;100211.13;6084692;19;20018;-74
2024/02/12 07:36:46;;;;;;;14.70;7.25;;;;;;;4.60;100.00;100219.78;6087877;19;20003;-73
2024/02/12 07:38:51;;;;;;;13.95;6.15;;;;;;;4.62;100.00;100211.97;6085889;19;20003;-75
2024/02/12 07:40:56;;;;;;;15.90;6.10;;;;;;;4.65;100.00;100217.06;6085437;19;20021;-74
2024/02/12 07:43:05;;;;;;;10.60;6.03;;;;;;;4.64;100.00;100217.97;6089469;19;20016;-75
2024/02/12 07:45:13;;;;;;;15.63;6.63;;;;;;;4.66;100.00;100229.22;6083490;19;20649;-74
2024/02/12 07:47:18;;;;;;;17.98;6.90;;;;;;;4.69;100.00;100225.69;6086516;19;20019;-74
2024/02/12 07:49:24;;;;;;;13.07;5.43;;;;;;;4.70;100.00;100235.19;6086991;19;20043;-74
2024/02/12 07:51:41;;;;;;;13.18;5.50;;;;;;;4.73;100.00;100230.75;6087553;19;20015;-74
2024/02/12 07:53:44;;;;;;;19.10;6.57;;;;;;;4.72;100.00;100243.81;6083800;19;20403;-76
2024/02/12 07:55:50;;;;;;;14.15;5.50;;;;;;;4.73;100.00;100243.75;6077269;19;20141;-74
2024/02/12 07:57:55;;;;;;;15.32;5.38;;;;;;;4.82;100.00;100245.28;6085293;19;20022;-74
2024/02/12 08:00:01;;;;;;;10.98;5.50;;;;;;;4.84;100.00;100252.16;6087060;19;20139;-74
2024/02/12 08:02:07;;;;;;;17.75;6.25;;;;;;;4.89;100.00;100251.16;6080365;19;20007;-74
2024/02/12 08:04:12;;;;;;;17.27;7.20;;;;;;;4.92;100.00;100248.47;6084916;19;20082;-74
2024/02/12 08:06:17;;;;;;;12.95;5.40;;;;;;;5.02;100.00;100255.16;6085717;19;20014;-74
2024/02/12 08:08:23;;;;;;;15.73;5.32;;;;;;;5.13;100.00;100260.06;6086788;19;20440;-74
2024/02/12 08:10:37;;;;;;;14.77;6.15;;;;;;;5.20;100.00;100267.66;6088439;19;20583;-75
2024/02/12 08:12:43;;;;;;;12.25;4.55;;;;;;;5.25;100.00;100272.75;6083780;19;20071;-75
2024/02/12 08:14:49;;;;;;;14.23;5.65;;;;;;;5.27;100.00;100274.44;6083338;19;20006;-74
2024/02/12 08:16:57;;;;;;;14.82;8.15;;;;;;;5.25;100.00;100273.59;6082009;19;20047;-74
2024/02/12 08:19:02;;;;;;;21.80;5.95;;;;;;;5.32;100.00;100283.84;6083956;19;20024;-76
2024/02/12 08:21:10;;;;;;;12.65;5.25;;;;;;;5.35;100.00;100286.41;6087045;19;20002;-74
2024/02/12 08:23:15;;;;;;;12.23;5.05;;;;;;;5.36;100.00;100290.69;6085480;19;20006;-74
2024/02/12 08:25:18;;;;;;;13.18;5.28;;;;;;;5.39;100.00;100290.59;6082680;19;20378;-74
2024/02/12 08:27:24;;;;;;;12.32;5.80;;;;;;;5.41;100.00;100292.28;6086917;19;20354;-74
2024/02/12 08:29:31;;;;;;;17.55;6.07;;;;;;;5.54;100.00;100291.94;6086598;19;20503;-74
2024/02/12 08:31:36;;;;;;;17.17;5.45;;;;;;;5.54;100.00;100298.00;6087406;19;20003;-74
2024/02/12 08:33:44;;;;;;;12.05;5.72;;;;;;;5.68;100.00;100295.84;6086755;19;20045;-74
2024/02/12 08:35:50;;;;;;;17.80;6.80;;;;;;;5.78;100.00;100295.59;6081715;19;20034;-75
2024/02/12 08:37:56;;;;;;;13.63;5.47;;;;;;;5.87;100.00;100301.38;6084694;19;20007;-74
2024/02/12 08:40:01;;;;;;;13.00;4.95;;;;;;;5.96;100.00;100295.06;6087388;19;20043;-75
2024/02/12 08:42:06;;;;;;;13.57;6.38;;;;;;;6.03;100.00;100307.03;6085552;19;20002;-74
2024/02/12 08:44:09;;;;;;;13.02;5.47;;;;;;;6.15;100.00;100309.25;6087147;19;20409;-73
2024/02/12 08:46:14;;;;;;;11.15;4.68;;;;;;;6.23;100.00;100309.00;6083941;19;20294;-74
2024/02/12 08:48:20;;;;;;;14.63;4.45;;;;;;;6.34;100.00;100308.66;6085393;19;20487;-74
2024/02/12 08:50:28;;;;;;;10.35;4.82;;;;;;;6.40;100.00;100308.50;6085012;19;20032;-74
2024/02/12 08:52:31;;;;;;;11.65;4.82;;;;;;;6.47;100.00;100315.19;6082071;19;20516;-74
2024/02/12 08:54:37;;;;;;;11.43;5.30;;;;;;;6.53;100.00;100316.75;6084994;19;20006;-74
2024/02/12 08:56:42;;;;;;;20.10;6.85;;;;;;;6.57;100.00;100321.00;6085571;19;20114;-74
2024/02/12 08:58:48;;;;;;;12.18;5.22;;;;;;;6.66;100.00;100322.44;6086811;19;20343;-74
2024/02/12 09:00:54;;;;;;;10.20;4.72;;;;;;;6.68;100.00;100328.47;6083507;19;20003;-75
2024/02/12 09:02:59;;;;;;;;;;;;;;;6.72;100.00;100323.09;6083778;19;20816;-73
2024/02/12 09:05:02;;;;;;;15.57;5.18;;;;;;;6.70;100.00;100332.75;6078332;19;19918;-75
2024/02/12 09:07:11;;;;;;;13.23;5.18;;;;;;;6.72;100.00;100338.78;6084463;19;20018;-75
2024/02/12 09:09:20;;;;;;;11.50;5.60;;;;;;;6.79;100.00;100337.69;6080465;19;20024;-75
2024/02/12 09:11:23;;;;;;;12.98;5.85;;;;;;;6.85;100.00;100335.78;6080033;19;20180;-73
2024/02/12 09:13:29;;;;;;;;;;;;;;;6.97;100.00;100338.78;6083778;19;20014;-73
2024/02/12 09:15:37;;;;;;;11.43;4.93;;;;;;;7.07;100.00;100338.50;6083628;19;19914;-73
2024/02/12 09:17:44;;;;;;;8.43;4.57;;;;;;;7.10;100.00;100336.63;6085145;19;20011;-74
2024/02/12 09:19:50;;;;;;;13.15;4.93;;;;;;;7.13;100.00;100344.34;6087256;19;20011;-74
2024/02/12 09:21:55;;;;;;;13.95;5.75;;;;;;;7.17;100.00;100345.97;6081452;19;20010;-74
2024/02/12 09:24:02;;;;;;;13.55;4.93;;;;;;;7.26;100.00;100348.25;6085049;19;20021;-74
2024/02/12 09:26:08;;;;;;;13.77;4.85;;;;;;;7.35;100.00;100349.72;6085455;19;20018;-74
2024/02/12 09:28:13;;;;;;;14.52;5.80;;;;;;;7.42;100.00;100360.78;6081603;19;20417;-77
2024/02/12 09:30:16;;;;;;;16.98;5.13;;;;;;;7.51;100.00;100359.63;6082503;19;20015;-75
2024/02/12 09:32:24;;;;;;;10.73;4.45;;;;;;;7.51;100.00;100362.25;6082172;19;20038;-79
2024/02/12 09:34:32;;;;;;;18.35;5.82;;;;;;;7.50;100.00;100368.38;6082428;19;20003;-73
2024/02/12 09:36:42;;;;;;;10.32;4.85;;;;;;;7.53;100.00;100363.91;6085261;19;20018;-76
2024/02/12 09:38:50;;;;;;;10.52;4.07;;;;;;;7.57;100.00;100372.47;6082704;19;20002;-74
2024/02/12 09:40:58;;;;;;;9.15;3.97;;;;;;;7.53;100.00;100373.47;6084538;19;20428;-74
2024/02/12 09:43:01;;;;;;;10.70;5.00;;;;;;;7.55;100.00;100372.53;6084914;19;20017;-74
2024/02/12 09:45:08;;;;;;;8.40;4.18;;;;;;;7.51;100.00;100372.72;6082398;19;20540;-74
2024/02/12 09:47:18;;;;;;;6.95;3.30;;;;;;;7.55;100.00;100376.91;6080721;19;20011;-74
2024/02/12 09:49:25;;;;;;;8.82;3.47;;;;;;;7.58;100.00;100384.63;6084102;19;20554;-74
2024/02/12 09:51:30;;;;;;;8.50;4.03;;;;;;;7.65;100.00;100376.53;6081045;19;20010;-73
2024/02/12 09:53:41;;;;;;;9.65;4.03;;;;;;;7.79;100.00;100383.84;6081289;19;20002;-74